createdAt,value
2023-03-04T00:00:59.392Z,1022.77
2023-03-04T00:01:59.465Z,1022.78
2023-03-04T00:02:59.417Z,1022.8
2023-03-04T00:03:59.395Z,1022.77
2023-03-04T00:04:59.542Z,1022.78
2023-03-04T00:05:59.390Z,1022.76
2023-03-04T00:06:59.405Z,1022.75
2023-03-04T00:07:59.385Z,1022.75
2023-03-04T00:08:59.399Z,1022.71
2023-03-04T00:09:59.391Z,1022.76
2023-03-04T00:10:59.386Z,1022.75
2023-03-04T00:11:59.400Z,1022.7
2023-03-04T00:12:59.394Z,1022.71
2023-03-04T00:13:59.397Z,1022.72
2023-03-04T00:14:59.392Z,1022.7
2023-03-04T00:15:59.444Z,1022.68
2023-03-04T00:16:59.416Z,1022.63
2023-03-04T00:17:59.388Z,1022.61
2023-03-04T00:18:59.391Z,1022.67
2023-03-04T00:19:59.406Z,1022.63
2023-03-04T00:20:59.388Z,1022.6
2023-03-04T00:21:59.406Z,1022.7
2023-03-04T00:22:59.386Z,1022.63
2023-03-04T00:23:59.388Z,1022.63
2023-03-04T00:24:59.389Z,1022.61
2023-03-04T00:25:59.389Z,1022.64
2023-03-04T00:26:59.452Z,1022.61
2023-03-04T00:27:59.406Z,1022.65
2023-03-04T00:28:59.395Z,1022.61
2023-03-04T00:29:59.382Z,1022.59
2023-03-04T00:30:59.389Z,1022.64
2023-03-04T00:31:59.575Z,1022.58
2023-03-04T00:32:59.406Z,1022.6
2023-03-04T00:33:59.389Z,1022.61
2023-03-04T00:34:59.512Z,1022.58
2023-03-04T00:35:59.399Z,1022.57
2023-03-04T00:36:59.405Z,1022.63
2023-03-04T00:37:59.396Z,1022.57
2023-03-04T00:38:59.386Z,1022.6
2023-03-04T00:39:59.386Z,1022.54
2023-03-04T00:40:59.384Z,1022.56
2023-03-04T00:41:59.395Z,1022.53
2023-03-04T00:42:59.432Z,1022.53
2023-03-04T00:43:59.397Z,1022.59
2023-03-04T00:44:59.384Z,1022.54
2023-03-04T00:45:59.445Z,1022.52
2023-03-04T00:46:59.407Z,1022.54
2023-03-04T00:47:59.378Z,1022.49
2023-03-04T00:48:59.379Z,1022.47
2023-03-04T00:49:59.408Z,1022.46
2023-03-04T00:50:59.396Z,1022.5
2023-03-04T00:51:59.411Z,1022.42
2023-03-04T00:52:59.387Z,1022.42
2023-03-04T00:54:00.887Z,1022.42
2023-03-04T00:54:59.380Z,1022.42
2023-03-04T00:55:59.387Z,1022.41
2023-03-04T00:56:59.403Z,1022.44
2023-03-04T00:57:59.381Z,1022.34
2023-03-04T00:58:59.386Z,1022.36
2023-03-04T00:59:59.382Z,1022.36
2023-03-04T01:00:59.400Z,1022.45
2023-03-04T01:01:59.405Z,1022.29
2023-03-04T01:02:59.386Z,1022.31
2023-03-04T01:03:59.391Z,1022.27
2023-03-04T01:04:59.428Z,1022.29
2023-03-04T01:05:59.392Z,1022.26
2023-03-04T01:06:59.403Z,1022.25
2023-03-04T01:07:59.388Z,1022.25
2023-03-04T01:08:59.389Z,1022.23
2023-03-04T01:09:59.380Z,1022.22
2023-03-04T01:10:59.390Z,1022.22
2023-03-04T01:11:59.395Z,1022.14
2023-03-04T01:12:59.383Z,1022.15
2023-03-04T01:13:59.391Z,1022.18
2023-03-04T01:14:59.394Z,1022.12
2023-03-04T01:15:59.381Z,1022.12
2023-03-04T01:16:59.454Z,1022.14
2023-03-04T01:17:59.403Z,1022.05
2023-03-04T01:18:59.378Z,1022.07
2023-03-04T01:19:59.402Z,1022.03
2023-03-04T01:20:59.384Z,1021.92
2023-03-04T01:21:59.450Z,1021.9
2023-03-04T01:22:59.387Z,1021.99
2023-03-04T01:23:59.394Z,1021.99
2023-03-04T01:24:59.386Z,1021.91
2023-03-04T01:25:59.392Z,1021.89
2023-03-04T01:26:59.408Z,1021.97
2023-03-04T01:27:59.384Z,1022.06
2023-03-04T01:28:59.380Z,1021.98
2023-03-04T01:29:59.380Z,1021.99
2023-03-04T01:30:59.483Z,1021.88
2023-03-04T01:31:59.447Z,1021.92
2023-03-04T01:32:59.391Z,1021.87
2023-03-04T01:33:59.387Z,1021.76
2023-03-04T01:34:59.446Z,1021.81
2023-03-04T01:35:59.378Z,1021.83
2023-03-04T01:36:59.394Z,1021.84
2023-03-04T01:37:59.409Z,1021.77
2023-03-04T01:38:59.395Z,1021.73
2023-03-04T01:39:59.384Z,1021.66
2023-03-04T01:40:59.412Z,1021.74
2023-03-04T01:41:59.409Z,1021.72
2023-03-04T01:42:59.380Z,1021.8
2023-03-04T01:43:59.379Z,1021.72
2023-03-04T01:44:59.387Z,1021.79
2023-03-04T01:45:59.401Z,1021.74
2023-03-04T01:46:59.403Z,1021.63
2023-03-04T01:47:59.393Z,1021.64
2023-03-04T01:48:59.417Z,1021.58
2023-03-04T01:49:59.397Z,1021.55
2023-03-04T01:50:59.394Z,1021.55
2023-03-04T01:51:59.401Z,1021.43
2023-03-04T01:52:59.385Z,1021.62
2023-03-04T01:53:59.399Z,1021.5
2023-03-04T01:54:59.386Z,1021.56
2023-03-04T01:55:59.395Z,1021.5
2023-03-04T01:56:59.410Z,1021.54
2023-03-04T01:57:59.390Z,1021.45
2023-03-04T01:58:59.395Z,1021.56
2023-03-04T01:59:59.383Z,1021.53
2023-03-04T02:00:59.387Z,1021.54
2023-03-04T02:01:59.438Z,1021.56
2023-03-04T02:02:59.393Z,1021.55
2023-03-04T02:03:59.445Z,1021.56
2023-03-04T02:04:59.562Z,1021.5
2023-03-04T02:05:59.403Z,1021.58
2023-03-04T02:06:59.405Z,1021.53
2023-03-04T02:07:59.397Z,1021.53
2023-03-04T02:08:59.388Z,1021.43
2023-03-04T02:09:59.391Z,1021.43
2023-03-04T02:10:59.392Z,1021.51
2023-03-04T02:11:59.403Z,1021.44
2023-03-04T02:12:59.387Z,1021.39
2023-03-04T02:13:59.382Z,1021.37
2023-03-04T02:14:59.394Z,1021.42
2023-03-04T02:15:59.441Z,1021.41
2023-03-04T02:16:59.405Z,1021.4
2023-03-04T02:17:59.387Z,1021.36
2023-03-04T02:18:59.390Z,1021.48
2023-03-04T02:19:59.400Z,1021.38
2023-03-04T02:20:59.384Z,1021.42
2023-03-04T02:21:59.404Z,1021.4
2023-03-04T02:22:59.394Z,1021.44
2023-03-04T02:23:59.380Z,1021.41
2023-03-04T02:24:59.388Z,1021.38
2023-03-04T02:25:59.388Z,1021.41
2023-03-04T02:26:59.396Z,1021.37
2023-03-04T02:27:59.377Z,1021.4
2023-03-04T02:28:59.385Z,1021.36
2023-03-04T02:29:59.377Z,1021.47
2023-03-04T02:30:59.417Z,1021.4
2023-03-04T02:31:59.466Z,1021.4
2023-03-04T02:32:59.391Z,1021.35
2023-03-04T02:33:59.375Z,1021.32
2023-03-04T02:34:59.421Z,1021.31
2023-03-04T02:35:59.389Z,1021.3
2023-03-04T02:36:59.428Z,1021.27
2023-03-04T02:37:59.377Z,1021.25
2023-03-04T02:38:59.374Z,1021.22
2023-03-04T02:39:59.393Z,1021.25
2023-03-04T02:40:59.397Z,1021.19
2023-03-04T02:41:59.391Z,1021.21
2023-03-04T02:42:59.390Z,1021.19
2023-03-04T02:43:59.377Z,1021.17
2023-03-04T02:44:59.383Z,1021.17
2023-03-04T02:45:59.394Z,1021.13
2023-03-04T02:46:59.403Z,1021.19
2023-03-04T02:47:59.382Z,1021.21
2023-03-04T02:48:59.385Z,1021.2
2023-03-04T02:49:59.406Z,1021.16
2023-03-04T02:50:59.378Z,1021.17
2023-03-04T02:51:59.400Z,1021.15
2023-03-04T02:52:59.385Z,1021.2
2023-03-04T02:53:59.380Z,1021.14
2023-03-04T02:54:59.384Z,1021.1
2023-03-04T02:55:59.392Z,1021.14
2023-03-04T02:56:59.409Z,1021.09
2023-03-04T02:57:59.381Z,1021.1
2023-03-04T02:58:59.392Z,1021.13
2023-03-04T02:59:59.388Z,1021.09
2023-03-04T03:00:59.399Z,1021.01
2023-03-04T03:01:59.415Z,1020.98
2023-03-04T03:02:59.431Z,1020.98
2023-03-04T03:03:59.381Z,1021.03
2023-03-04T03:04:59.431Z,1021.02
2023-03-04T03:05:59.383Z,1020.99
2023-03-04T03:06:59.407Z,1021.03
2023-03-04T03:07:59.389Z,1021.03
2023-03-04T03:08:59.379Z,1021.01
2023-03-04T03:09:59.389Z,1021.02
2023-03-04T03:10:59.385Z,1021.02
2023-03-04T03:11:59.399Z,1020.99
2023-03-04T03:12:59.382Z,1021.01
2023-03-04T03:13:59.398Z,1020.93
2023-03-04T03:14:59.377Z,1020.98
2023-03-04T03:15:59.526Z,1020.92
2023-03-04T03:16:59.409Z,1020.92
2023-03-04T03:17:59.390Z,1020.89
2023-03-04T03:18:59.404Z,1020.91
2023-03-04T03:19:59.409Z,1020.9
2023-03-04T03:20:59.382Z,1020.86
2023-03-04T03:21:59.400Z,1020.79
2023-03-04T03:22:59.385Z,1020.74
2023-03-04T03:23:59.385Z,1020.79
2023-03-04T03:24:59.379Z,1020.79
2023-03-04T03:25:59.389Z,1020.78
2023-03-04T03:26:59.410Z,1020.83
2023-03-04T03:27:59.380Z,1020.77
2023-03-04T03:28:59.402Z,1020.72
2023-03-04T03:29:59.391Z,1020.83
2023-03-04T03:30:59.379Z,1020.78
2023-03-04T03:31:59.471Z,1020.74
2023-03-04T03:32:59.380Z,1020.77
2023-03-04T03:33:59.380Z,1020.7
2023-03-04T03:34:59.400Z,1020.72
2023-03-04T03:35:59.501Z,1020.73
2023-03-04T03:36:59.416Z,1020.77
2023-03-04T03:37:59.377Z,1020.69
2023-03-04T03:38:59.384Z,1020.75
2023-03-04T03:39:59.373Z,1020.77
2023-03-04T03:40:59.386Z,1020.89
2023-03-04T03:41:59.402Z,1020.64
2023-03-04T03:42:59.376Z,1020.73
2023-03-04T03:43:59.405Z,1020.78
2023-03-04T03:44:59.383Z,1020.81
2023-03-04T03:45:59.412Z,1020.7
2023-03-04T03:46:59.405Z,1020.77
2023-03-04T03:47:59.387Z,1020.77
2023-03-04T03:48:59.376Z,1020.78
2023-03-04T03:49:59.397Z,1020.73
2023-03-04T03:50:59.382Z,1020.8
2023-03-04T03:51:59.418Z,1020.79
2023-03-04T03:52:59.386Z,1020.79
2023-03-04T03:53:59.387Z,1020.75
2023-03-04T03:55:01.625Z,1020.69
2023-03-04T03:55:59.386Z,1020.8
2023-03-04T03:56:59.417Z,1020.74
2023-03-04T03:57:59.391Z,1020.75
2023-03-04T03:58:59.379Z,1020.78
2023-03-04T03:59:59.382Z,1020.64
2023-03-04T04:00:59.378Z,1020.67
2023-03-04T04:01:59.489Z,1020.56
2023-03-04T04:02:59.456Z,1020.55
2023-03-04T04:03:59.385Z,1020.55
2023-03-04T04:04:59.412Z,1020.47
2023-03-04T04:05:59.384Z,1020.54
2023-03-04T04:06:59.399Z,1020.39
2023-03-04T04:07:59.393Z,1020.39
2023-03-04T04:08:59.399Z,1020.43
2023-03-04T04:09:59.389Z,1020.29
2023-03-04T04:10:59.383Z,1020.45
2023-03-04T04:11:59.400Z,1020.44
2023-03-04T04:12:59.384Z,1020.4
2023-03-04T04:13:59.391Z,1020.42
2023-03-04T04:14:59.395Z,1020.37
2023-03-04T04:15:59.380Z,1020.39
2023-03-04T04:16:59.404Z,1020.42
2023-03-04T04:17:59.392Z,1020.44
2023-03-04T04:18:59.377Z,1020.5
2023-03-04T04:19:59.431Z,1020.49
2023-03-04T04:20:59.393Z,1020.37
2023-03-04T04:21:59.392Z,1020.46
2023-03-04T04:22:59.379Z,1020.54
2023-03-04T04:23:59.387Z,1020.42
2023-03-04T04:24:59.394Z,1020.6
2023-03-04T04:25:59.382Z,1020.51
2023-03-04T04:26:59.401Z,1020.4
2023-03-04T04:27:59.391Z,1020.47
2023-03-04T04:28:59.381Z,1020.43
2023-03-04T04:29:59.393Z,1020.47
2023-03-04T04:30:59.438Z,1020.5
2023-03-04T04:31:59.459Z,1020.38
2023-03-04T04:32:59.383Z,1020.36
2023-03-04T04:33:59.382Z,1020.36
2023-03-04T04:34:59.393Z,1020.31
2023-03-04T04:35:59.426Z,1020.45
2023-03-04T04:36:59.419Z,1020.39
2023-03-04T04:37:59.372Z,1020.4
2023-03-04T04:38:59.393Z,1020.49
2023-03-04T04:39:59.374Z,1020.39
2023-03-04T04:40:59.379Z,1020.36
2023-03-04T04:41:59.389Z,1020.45
2023-03-04T04:42:59.382Z,1020.4
2023-03-04T04:43:59.381Z,1020.28
2023-03-04T04:44:59.380Z,1020.45
2023-03-04T04:45:59.418Z,1020.32
2023-03-04T04:46:59.395Z,1020.41
2023-03-04T04:47:59.407Z,1020.38
2023-03-04T04:48:59.384Z,1020.36
2023-03-04T04:49:59.383Z,1020.38
2023-03-04T04:50:59.374Z,1020.5
2023-03-04T04:51:59.401Z,1020.5
2023-03-04T04:52:59.384Z,1020.38
2023-03-04T04:53:59.370Z,1020.39
2023-03-04T04:54:59.389Z,1020.41
2023-03-04T04:55:59.384Z,1020.41
2023-03-04T04:56:59.391Z,1020.39
2023-03-04T04:57:59.383Z,1020.34
2023-03-04T04:58:59.380Z,1020.38
2023-03-04T04:59:59.373Z,1020.38
2023-03-04T05:00:59.417Z,1020.35
2023-03-04T05:01:59.397Z,1020.35
2023-03-04T05:02:59.400Z,1020.38
2023-03-04T05:03:59.385Z,1020.34
2023-03-04T05:04:59.397Z,1020.36
2023-03-04T05:05:59.373Z,1020.44
2023-03-04T05:06:59.396Z,1020.36
2023-03-04T05:07:59.376Z,1020.36
2023-03-04T05:08:59.379Z,1020.18
2023-03-04T05:09:59.390Z,1020.17
2023-03-04T05:10:59.375Z,1020.27
2023-03-04T05:11:59.396Z,1020.33
2023-03-04T05:12:59.379Z,1020.32
2023-03-04T05:13:59.380Z,1020.25
2023-03-04T05:14:59.395Z,1020.23
2023-03-04T05:15:59.442Z,1020.25
2023-03-04T05:16:59.414Z,1020.18
2023-03-04T05:17:59.386Z,1020.41
2023-03-04T05:18:59.384Z,1020.28
2023-03-04T05:19:59.397Z,1020.15
2023-03-04T05:20:59.388Z,1020.35
2023-03-04T05:21:59.395Z,1020.32
2023-03-04T05:22:59.386Z,1020.41
2023-03-04T05:23:59.387Z,1020.33
2023-03-04T05:24:59.378Z,1020.42
2023-03-04T05:25:59.380Z,1020.23
2023-03-04T05:26:59.422Z,1020.29
2023-03-04T05:27:59.374Z,1020.38
2023-03-04T05:28:59.389Z,1020.32
2023-03-04T05:29:59.378Z,1020.27
2023-03-04T05:30:59.458Z,1020.26
2023-03-04T05:31:59.440Z,1020.35
2023-03-04T05:32:59.392Z,1020.32
2023-03-04T05:33:59.375Z,1020.32
2023-03-04T05:34:59.400Z,1020.29
2023-03-04T05:35:59.431Z,1020.27
2023-03-04T05:36:59.406Z,1020.19
2023-03-04T05:37:59.384Z,1020.26
2023-03-04T05:38:59.381Z,1020.26
2023-03-04T05:39:59.386Z,1020.39
2023-03-04T05:40:59.393Z,1020.33
2023-03-04T05:41:59.408Z,1020.33
2023-03-04T05:42:59.382Z,1020.23
2023-03-04T05:43:59.383Z,1020.09
2023-03-04T05:44:59.406Z,1020.27
2023-03-04T05:45:59.430Z,1020.28
2023-03-04T05:46:59.440Z,1020.24
2023-03-04T05:47:59.384Z,1020.24
2023-03-04T05:48:59.386Z,1020.36
2023-03-04T05:49:59.417Z,1020.2
2023-03-04T05:50:59.409Z,1020.32
2023-03-04T05:51:59.402Z,1020.35
2023-03-04T05:52:59.384Z,1020.28
2023-03-04T05:53:59.383Z,1020.22
2023-03-04T05:54:59.381Z,1020.35
2023-03-04T05:55:59.389Z,1020.24
2023-03-04T05:56:59.471Z,1020.15
2023-03-04T05:57:59.388Z,1020.24
2023-03-04T05:58:59.391Z,1020.29
2023-03-04T05:59:59.384Z,1020.28
2023-03-04T06:00:59.378Z,1020.24
2023-03-04T06:01:59.392Z,1020.22
2023-03-04T06:02:59.416Z,1020.23
2023-03-04T06:03:59.425Z,1020.27
2023-03-04T06:04:59.425Z,1020.29
2023-03-04T06:05:59.385Z,1020.34
2023-03-04T06:06:59.406Z,1020.41
2023-03-04T06:07:59.380Z,1020.34
2023-03-04T06:08:59.382Z,1020.19
2023-03-04T06:09:59.391Z,1020.34
2023-03-04T06:10:59.383Z,1020.32
2023-03-04T06:11:59.405Z,1020.34
2023-03-04T06:12:59.391Z,1020.31
2023-03-04T06:13:59.437Z,1020.32
2023-03-04T06:14:59.375Z,1020.39
2023-03-04T06:15:59.432Z,1020.34
2023-03-04T06:16:59.400Z,1020.33
2023-03-04T06:17:59.386Z,1020.39
2023-03-04T06:18:59.396Z,1020.33
2023-03-04T06:19:59.422Z,1020.44
2023-03-04T06:20:59.380Z,1020.44
2023-03-04T06:21:59.398Z,1020.44
2023-03-04T06:22:59.381Z,1020.4
2023-03-04T06:23:59.390Z,1020.45
2023-03-04T06:24:59.390Z,1020.33
2023-03-04T06:25:59.405Z,1020.42
2023-03-04T06:26:59.403Z,1020.51
2023-03-04T06:27:59.386Z,1020.43
2023-03-04T06:28:59.390Z,1020.37
2023-03-04T06:29:59.381Z,1020.4
2023-03-04T06:30:59.393Z,1020.4
2023-03-04T06:31:59.470Z,1020.47
2023-03-04T06:32:59.388Z,1020.49
2023-03-04T06:33:59.393Z,1020.44
2023-03-04T06:34:59.395Z,1020.43
2023-03-04T06:35:59.481Z,1020.5
2023-03-04T06:36:59.396Z,1020.44
2023-03-04T06:37:59.376Z,1020.42
2023-03-04T06:38:59.403Z,1020.42
2023-03-04T06:39:59.399Z,1020.4
2023-03-04T06:40:59.399Z,1020.38
2023-03-04T06:41:59.400Z,1020.49
2023-03-04T06:42:59.381Z,1020.42
2023-03-04T06:43:59.377Z,1020.43
2023-03-04T06:44:59.387Z,1020.4
2023-03-04T06:45:59.385Z,1020.45
2023-03-04T06:46:59.468Z,1020.42
2023-03-04T06:47:59.384Z,1020.37
2023-03-04T06:48:59.407Z,1020.43
2023-03-04T06:49:59.398Z,1020.43
2023-03-04T06:50:59.385Z,1020.34
2023-03-04T06:51:59.394Z,1020.4
2023-03-04T06:52:59.386Z,1020.38
2023-03-04T06:53:59.397Z,1020.4
2023-03-04T06:54:59.379Z,1020.42
2023-03-04T06:55:59.387Z,1020.38
2023-03-04T06:56:59.409Z,1020.42
2023-03-04T06:57:59.386Z,1020.43
2023-03-04T06:58:59.382Z,1020.49
2023-03-04T06:59:59.378Z,1020.42
2023-03-04T07:00:59.423Z,1020.43
2023-03-04T07:01:59.403Z,1020.42
2023-03-04T07:02:59.406Z,1020.42
2023-03-04T07:03:59.424Z,1020.48
2023-03-04T07:04:59.400Z,1020.43
2023-03-04T07:05:59.386Z,1020.41
2023-03-04T07:06:59.397Z,1020.43
2023-03-04T07:07:59.385Z,1020.43
2023-03-04T07:08:59.387Z,1020.43
2023-03-04T07:09:59.389Z,1020.46
2023-03-04T07:10:59.380Z,1020.42
2023-03-04T07:11:59.397Z,1020.48
2023-03-04T07:12:59.386Z,1020.51
2023-03-04T07:13:59.396Z,1020.48
2023-03-04T07:14:59.390Z,1020.45
2023-03-04T07:15:59.377Z,1020.46
2023-03-04T07:16:59.403Z,1020.52
2023-03-04T07:17:59.382Z,1020.44
2023-03-04T07:18:59.375Z,1020.46
2023-03-04T07:19:59.421Z,1020.48
2023-03-04T07:20:59.379Z,1020.44
2023-03-04T07:21:59.393Z,1020.45
2023-03-04T07:22:59.395Z,1020.5
2023-03-04T07:23:59.380Z,1020.44
2023-03-04T07:24:59.379Z,1020.46
2023-03-04T07:25:59.766Z,1020.46
2023-03-04T07:26:59.389Z,1020.42
2023-03-04T07:27:59.394Z,1020.51
2023-03-04T07:28:59.380Z,1020.42
2023-03-04T07:29:59.385Z,1020.4
2023-03-04T07:30:59.381Z,1020.52
2023-03-04T07:31:59.513Z,1020.42
2023-03-04T07:32:59.385Z,1020.44
2023-03-04T07:33:59.387Z,1020.44
2023-03-04T07:34:59.398Z,1020.45
2023-03-04T07:35:59.376Z,1020.5
2023-03-04T07:36:59.424Z,1020.4
2023-03-04T07:37:59.382Z,1020.39
2023-03-04T07:38:59.394Z,1020.39
2023-03-04T07:39:59.389Z,1020.43
2023-03-04T07:40:59.388Z,1020.44
2023-03-04T07:41:59.398Z,1020.42
2023-03-04T07:42:59.398Z,1020.42
2023-03-04T07:43:59.429Z,1020.46
2023-03-04T07:44:59.378Z,1020.45
2023-03-04T07:45:59.521Z,1020.4
2023-03-04T07:46:59.402Z,1020.41
2023-03-04T07:47:59.386Z,1020.42
2023-03-04T07:48:59.384Z,1020.41
2023-03-04T07:49:59.402Z,1020.39
2023-03-04T07:50:59.386Z,1020.38
2023-03-04T07:51:59.411Z,1020.4
2023-03-04T07:52:59.381Z,1020.4
2023-03-04T07:53:59.380Z,1020.37
2023-03-04T07:54:59.388Z,1020.37
2023-03-04T07:56:02.231Z,1020.4
2023-03-04T07:56:59.418Z,1020.31
2023-03-04T07:57:59.383Z,1020.36
2023-03-04T07:58:59.389Z,1020.35
2023-03-04T07:59:59.397Z,1020.34
2023-03-04T08:00:59.390Z,1020.34
2023-03-04T08:01:59.394Z,1020.31
2023-03-04T08:02:59.386Z,1020.29
2023-03-04T08:03:59.470Z,1020.36
2023-03-04T08:04:59.412Z,1020.34
2023-03-04T08:05:59.388Z,1020.27
2023-03-04T08:06:59.404Z,1020.29
2023-03-04T08:07:59.393Z,1020.33
2023-03-04T08:08:59.388Z,1020.32
2023-03-04T08:09:59.382Z,1020.27
2023-03-04T08:10:59.387Z,1020.27
2023-03-04T08:11:59.402Z,1020.25
2023-03-04T08:12:59.407Z,1020.31
2023-03-04T08:13:59.387Z,1020.36
2023-03-04T08:14:59.394Z,1020.27
2023-03-04T08:15:59.530Z,1020.23
2023-03-04T08:16:59.425Z,1020.25
2023-03-04T08:17:59.387Z,1020.24
2023-03-04T08:18:59.399Z,1020.17
2023-03-04T08:19:59.405Z,1020.27
2023-03-04T08:20:59.389Z,1020.19
2023-03-04T08:21:59.400Z,1020.22
2023-03-04T08:22:59.380Z,1020.24
2023-03-04T08:23:59.471Z,1020.23
2023-03-04T08:24:59.386Z,1020.17
2023-03-04T08:25:59.374Z,1020.18
2023-03-04T08:26:59.396Z,1020.16
2023-03-04T08:27:59.380Z,1020.15
2023-03-04T08:28:59.381Z,1020.18
2023-03-04T08:29:59.388Z,1020.12
2023-03-04T08:30:59.443Z,1020.12
2023-03-04T08:31:59.594Z,1020.09
2023-03-04T08:32:59.434Z,1020.12
2023-03-04T08:33:59.381Z,1020.11
2023-03-04T08:34:59.388Z,1020.11
2023-03-04T08:35:59.434Z,1020.09
2023-03-04T08:36:59.399Z,1020.1
2023-03-04T08:38:02.018Z,1020.12
2023-03-04T08:38:59.393Z,1020.12
2023-03-04T08:39:59.380Z,1020.05
2023-03-04T08:40:59.389Z,1020.01
2023-03-04T08:41:59.397Z,1020.02
2023-03-04T08:42:59.374Z,1020.06
2023-03-04T08:43:59.414Z,1020.01
2023-03-04T08:44:59.385Z,1020.03
2023-03-04T08:45:59.416Z,1020.03
2023-03-04T08:46:59.409Z,1020.1
2023-03-04T08:47:59.399Z,1020.22
2023-03-04T08:48:59.382Z,1020.11
2023-03-04T08:49:59.401Z,1020.05
2023-03-04T08:50:59.375Z,1020.03
2023-03-04T08:51:59.402Z,1020.09
2023-03-04T08:52:59.386Z,1020.15
2023-03-04T08:53:59.391Z,1020.11
2023-03-04T08:54:59.379Z,1020.13
2023-03-04T08:55:59.380Z,1020.02
2023-03-04T08:56:59.414Z,1020.05
2023-03-04T08:57:59.386Z,1020.08
2023-03-04T08:58:59.399Z,1020.03
2023-03-04T08:59:59.377Z,1020.05
2023-03-04T09:00:59.381Z,1020.06
2023-03-04T09:01:59.408Z,1020.01
2023-03-04T09:02:59.379Z,1020.04
2023-03-04T09:03:59.420Z,1020.03
2023-03-04T09:04:59.402Z,1020.1
2023-03-04T09:05:59.390Z,1020.01
2023-03-04T09:06:59.400Z,1019.99
2023-03-04T09:07:59.399Z,1020.01
2023-03-04T09:08:59.384Z,1019.98
2023-03-04T09:09:59.387Z,1020.04
2023-03-04T09:10:59.380Z,1020.06
2023-03-04T09:11:59.394Z,1020.04
2023-03-04T09:12:59.393Z,1020.02
2023-03-04T09:13:59.383Z,1020.04
2023-03-04T09:15:10.577Z,1020.03
2023-03-04T09:15:59.454Z,1019.95
2023-03-04T09:16:59.396Z,1020.08
2023-03-04T09:17:59.394Z,1019.99
2023-03-04T09:18:59.388Z,1020.01
2023-03-04T09:19:59.398Z,1020.04
2023-03-04T09:20:59.388Z,1020.08
2023-03-04T09:21:59.402Z,1020.05
2023-03-04T09:22:59.387Z,1019.96
2023-03-04T09:23:59.402Z,1020.11
2023-03-04T09:24:59.379Z,1020.06
2023-03-04T09:25:59.386Z,1020.03
2023-03-04T09:26:59.415Z,1020.08
2023-03-04T09:27:59.379Z,1020.01
2023-03-04T09:28:59.384Z,1019.98
2023-03-04T09:29:59.409Z,1020
2023-03-04T09:30:59.446Z,1020.02
2023-03-04T09:33:02.574Z,1020.15
2023-03-04T09:34:01.421Z,1020.03
2023-03-04T09:35:01.456Z,1020.03
2023-03-04T09:36:01.508Z,1020.04
2023-03-04T09:37:01.436Z,1020.09
2023-03-04T09:38:01.425Z,1020.02
2023-03-04T09:39:01.425Z,1020.02
2023-03-04T09:40:01.416Z,1020.08
2023-03-04T09:41:01.422Z,1020.08
2023-03-04T09:42:01.432Z,1020.12
2023-03-04T09:43:01.414Z,1020.06
2023-03-04T09:44:01.411Z,1020.1
2023-03-04T09:45:01.415Z,1020.09
2023-03-04T09:46:01.419Z,1020.08
2023-03-04T09:47:01.455Z,1020.09
2023-03-04T09:48:01.408Z,1020.05
2023-03-04T09:49:01.413Z,1020.05
2023-03-04T09:50:01.453Z,1020.04
2023-03-04T09:51:01.407Z,1020.11
2023-03-04T09:52:01.443Z,1020.05
2023-03-04T09:53:01.472Z,1020.13
2023-03-04T09:54:01.421Z,1020.14
2023-03-04T09:55:04.308Z,1020.09
2023-03-04T09:56:01.418Z,1020.13
2023-03-04T09:57:01.422Z,1020.08
2023-03-04T09:58:01.477Z,1020
2023-03-04T09:59:01.412Z,1019.99
2023-03-04T10:00:01.416Z,1019.96
2023-03-04T10:01:04.062Z,1019.99
2023-03-04T10:02:01.424Z,1019.93
2023-03-04T10:03:01.408Z,1019.98
2023-03-04T10:04:01.403Z,1019.89
2023-03-04T10:05:01.557Z,1019.95
2023-03-04T10:06:01.403Z,1019.96
2023-03-04T10:07:01.568Z,1019.98
2023-03-04T10:08:01.542Z,1019.94
2023-03-04T10:09:01.464Z,1019.91
2023-03-04T10:10:01.412Z,1019.89
2023-03-04T10:11:01.481Z,1019.82
2023-03-04T10:12:01.415Z,1019.91
2023-03-04T10:13:01.401Z,1019.9
2023-03-04T10:14:01.407Z,1019.88
2023-03-04T10:15:01.412Z,1019.94
2023-03-04T10:16:01.452Z,1019.95
2023-03-04T10:17:01.418Z,1019.89
2023-03-04T10:18:01.414Z,1019.87
2023-03-04T10:19:01.399Z,1019.81
2023-03-04T10:20:01.418Z,1019.78
2023-03-04T10:21:01.398Z,1019.81
2023-03-04T10:22:01.445Z,1019.8
2023-03-04T10:23:01.393Z,1019.82
2023-03-04T10:24:01.400Z,1019.81
2023-03-04T10:25:01.414Z,1019.82
2023-03-04T10:26:01.403Z,1019.8
2023-03-04T10:27:01.428Z,1019.89
2023-03-04T10:28:01.397Z,1019.86
2023-03-04T10:29:01.402Z,1019.81
2023-03-04T10:30:01.399Z,1019.88
2023-03-04T10:31:01.427Z,1019.74
2023-03-04T10:32:01.664Z,1019.69
2023-03-04T10:33:01.402Z,1019.75
2023-03-04T10:34:01.394Z,1019.7
2023-03-04T10:35:01.406Z,1019.78
2023-03-04T10:36:01.438Z,1019.8
2023-03-04T10:37:01.470Z,1019.79
2023-03-04T10:38:01.389Z,1019.78
2023-03-04T10:39:01.396Z,1019.78
2023-03-04T10:40:01.398Z,1019.77
2023-03-04T10:41:01.405Z,1019.77
2023-03-04T10:42:01.550Z,1019.79
2023-03-04T10:43:01.389Z,1019.69
2023-03-04T10:44:01.406Z,1019.74
2023-03-04T10:45:01.420Z,1019.7
2023-03-04T10:46:01.546Z,1019.68
2023-03-04T10:47:01.402Z,1019.64
2023-03-04T10:48:01.411Z,1019.61
2023-03-04T10:49:01.395Z,1019.65
2023-03-04T10:50:01.420Z,1019.67
2023-03-04T10:51:01.388Z,1019.64
2023-03-04T10:52:01.401Z,1019.61
2023-03-04T10:53:01.380Z,1019.56
2023-03-04T10:54:01.381Z,1019.55
2023-03-04T10:55:01.399Z,1019.59
2023-03-04T10:56:01.377Z,1019.57
2023-03-04T10:57:01.422Z,1019.68
2023-03-04T10:58:01.389Z,1019.64
2023-03-04T10:59:01.385Z,1019.54
2023-03-04T11:00:01.396Z,1019.63
2023-03-04T11:01:01.421Z,1019.56
2023-03-04T11:02:01.390Z,1019.58
2023-03-04T11:03:06.401Z,1019.5
2023-03-04T11:04:01.506Z,1019.59
2023-03-04T11:05:01.406Z,1019.56
2023-03-04T11:06:01.385Z,1019.61
2023-03-04T11:07:01.401Z,1019.5
2023-03-04T11:08:01.379Z,1019.53
2023-03-04T11:09:01.394Z,1019.52
2023-03-04T11:10:01.386Z,1019.58
2023-03-04T11:11:01.381Z,1019.5
2023-03-04T11:12:01.402Z,1019.55
2023-03-04T11:13:01.385Z,1019.55
2023-03-04T11:14:01.392Z,1019.56
2023-03-04T11:15:01.385Z,1019.58
2023-03-04T11:16:01.394Z,1019.48
2023-03-04T11:17:01.400Z,1019.46
2023-03-04T11:18:01.370Z,1019.46
2023-03-04T11:19:01.384Z,1019.44
2023-03-04T11:20:01.386Z,1019.44
2023-03-04T11:21:01.405Z,1019.36
2023-03-04T11:22:01.397Z,1019.52
2023-03-04T11:23:03.021Z,1019.51
2023-03-04T11:24:01.386Z,1019.5
2023-03-04T11:25:01.399Z,1019.47
2023-03-04T11:26:01.365Z,1019.48
2023-03-04T11:27:01.391Z,1019.45
2023-03-04T11:28:01.391Z,1019.45
2023-03-04T11:29:01.385Z,1019.45
2023-03-04T11:30:01.373Z,1019.43
2023-03-04T11:31:01.375Z,1019.41
2023-03-04T11:32:01.647Z,1019.57
2023-03-04T11:33:01.374Z,1019.45
2023-03-04T11:34:01.383Z,1019.45
2023-03-04T11:35:01.385Z,1019.51
2023-03-04T11:36:01.373Z,1019.44
2023-03-04T11:37:01.401Z,1019.38
2023-03-04T11:38:01.385Z,1019.41
2023-03-04T11:39:01.413Z,1019.41
2023-03-04T11:40:01.406Z,1019.43
2023-03-04T11:41:01.412Z,1019.33
2023-03-04T11:42:01.409Z,1019.44
2023-03-04T11:43:01.386Z,1019.44
2023-03-04T11:44:01.408Z,1019.35
2023-03-04T11:45:01.409Z,1019.43
2023-03-04T11:46:01.438Z,1019.39
2023-03-04T11:47:01.421Z,1019.38
2023-03-04T11:48:01.400Z,1019.42
2023-03-04T11:49:01.398Z,1019.33
2023-03-04T11:50:01.437Z,1019.32
2023-03-04T11:51:01.413Z,1019.41
2023-03-04T11:52:01.449Z,1019.36
2023-03-04T11:53:01.413Z,1019.33
2023-03-04T11:54:01.414Z,1019.27
2023-03-04T11:55:01.402Z,1019.31
2023-03-04T11:56:01.401Z,1019.35
2023-03-04T11:57:01.419Z,1019.27
2023-03-04T11:58:01.416Z,1019.24
2023-03-04T11:59:01.404Z,1019.3
2023-03-04T12:00:01.398Z,1019.29
2023-03-04T12:01:01.415Z,1019.33
2023-03-04T12:02:01.418Z,1019.31
2023-03-04T12:03:01.392Z,1019.26
2023-03-04T12:04:01.511Z,1019.28
2023-03-04T12:05:01.521Z,1019.25
2023-03-04T12:06:01.402Z,1019.3
2023-03-04T12:07:01.417Z,1019.28
2023-03-04T12:08:01.408Z,1019.22
2023-03-04T12:09:01.413Z,1019.22
2023-03-04T12:10:01.417Z,1019.25